< < Back
Terminal Aerodrome Forecast


Current Version              Previous Versions:   1  2  3  4  5  6  7  8  9  

Terminal Aerodrome Forecast

571
FTUS42 KTAE 300524
TAFABY
TAF
KABY 300524Z 3006/0106 22005KT P6SM SCT250
     FM301800 25010KT P6SM VCTS SCT050CB
     FM010000 23007KT P6SM OVC250=

Latest METAR

561
SAUS70 KWBC 300800 RRE
MTRABY
METAR KABY 300753Z AUTO 22003KT 7SM CLR 23/22 A3005 RMK AO2 SLP172
T02330222


USA.gov is the U.S. government's official web portal to all federal, state and local government web resources and services.